sensor_id;sensor_type;location;lat;lon;timestamp;pressure;altitude;pressure_sealevel;temperature;humidity
71938;BME280;59810;48.800;9.086;2022-11-15T00:00:09;97410.72;;;11.51;65.11
71938;BME280;59810;48.800;9.086;2022-11-15T00:02:37;97410.19;;;11.49;65.39
71938;BME280;59810;48.800;9.086;2022-11-15T00:05:02;97404.50;;;11.46;65.53
71938;BME280;59810;48.800;9.086;2022-11-15T00:07:28;97409.09;;;11.45;65.65
71938;BME280;59810;48.800;9.086;2022-11-15T00:09:55;97404.47;;;11.41;65.88
71938;BME280;59810;48.800;9.086;2022-11-15T00:12:21;97408.50;;;11.38;66.06
71938;BME280;59810;48.800;9.086;2022-11-15T00:14:46;97409.81;;;11.36;65.74
71938;BME280;59810;48.800;9.086;2022-11-15T00:17:12;97407.38;;;11.34;65.85
71938;BME280;59810;48.800;9.086;2022-11-15T00:19:37;97412.25;;;11.37;65.62
71938;BME280;59810;48.800;9.086;2022-11-15T00:22:02;97400.63;;;11.37;65.46
71938;BME280;59810;48.800;9.086;2022-11-15T00:24:28;97397.16;;;11.41;65.33
71938;BME280;59810;48.800;9.086;2022-11-15T00:26:53;97393.38;;;11.42;65.27
71938;BME280;59810;48.800;9.086;2022-11-15T00:29:19;97392.34;;;11.48;65.41
71938;BME280;59810;48.800;9.086;2022-11-15T00:31:44;97393.97;;;11.49;64.81
71938;BME280;59810;48.800;9.086;2022-11-15T00:34:09;97386.66;;;11.50;65.56
71938;BME280;59810;48.800;9.086;2022-11-15T00:36:35;97391.53;;;11.48;64.97
71938;BME280;59810;48.800;9.086;2022-11-15T00:39:04;97391.78;;;11.46;65.35
71938;BME280;59810;48.800;9.086;2022-11-15T00:41:30;97394.50;;;11.46;64.78
71938;BME280;59810;48.800;9.086;2022-11-15T00:43:55;97387.19;;;11.47;64.89
71938;BME280;59810;48.800;9.086;2022-11-15T00:46:23;97387.47;;;11.45;64.51
71938;BME280;59810;48.800;9.086;2022-11-15T00:48:48;97392.31;;;11.43;64.94
71938;BME280;59810;48.800;9.086;2022-11-15T00:51:14;97387.91;;;11.37;65.34
71938;BME280;59810;48.800;9.086;2022-11-15T00:53:42;97392.22;;;11.33;65.55
71938;BME280;59810;48.800;9.086;2022-11-15T00:56:09;97379.22;;;11.30;65.57
71938;BME280;59810;48.800;9.086;2022-11-15T00:58:35;97387.06;;;11.27;65.72
71938;BME280;59810;48.800;9.086;2022-11-15T01:01:09;97383.25;;;11.22;65.78
71938;BME280;59810;48.800;9.086;2022-11-15T01:03:35;97390.50;;;11.17;65.46
71938;BME280;59810;48.800;9.086;2022-11-15T01:06:03;97388.88;;;11.16;66.56
71938;BME280;59810;48.800;9.086;2022-11-15T01:08:29;97393.13;;;11.07;66.97
71938;BME280;59810;48.800;9.086;2022-11-15T01:11:00;97380.06;;;10.94;68.28
71938;BME280;59810;48.800;9.086;2022-11-15T01:13:25;97382.72;;;10.88;68.60
71938;BME280;59810;48.800;9.086;2022-11-15T01:15:53;97379.91;;;10.73;69.81
71938;BME280;59810;48.800;9.086;2022-11-15T01:18:21;97379.41;;;10.49;72.26
71938;BME280;59810;48.800;9.086;2022-11-15T01:20:46;97380.34;;;10.38;72.56
71938;BME280;59810;48.800;9.086;2022-11-15T01:23:11;97375.28;;;10.20;73.42
71938;BME280;59810;48.800;9.086;2022-11-15T01:25:37;97377.75;;;9.99;74.46
71938;BME280;59810;48.800;9.086;2022-11-15T01:28:05;97371.88;;;9.81;74.88
71938;BME280;59810;48.800;9.086;2022-11-15T01:30:30;97374.53;;;9.76;75.15
71938;BME280;59810;48.800;9.086;2022-11-15T01:32:56;97371.94;;;9.64;75.32
71938;BME280;59810;48.800;9.086;2022-11-15T01:35:21;97374.38;;;9.44;76.89
71938;BME280;59810;48.800;9.086;2022-11-15T01:37:47;97367.50;;;9.36;76.54
71938;BME280;59810;48.800;9.086;2022-11-15T01:40:12;97373.00;;;9.24;77.27
71938;BME280;59810;48.800;9.086;2022-11-15T01:42:38;97367.06;;;9.22;77.79
71938;BME280;59810;48.800;9.086;2022-11-15T01:45:03;97364.84;;;9.19;77.67
71938;BME280;59810;48.800;9.086;2022-11-15T01:47:34;97353.91;;;9.09;78.14
71938;BME280;59810;48.800;9.086;2022-11-15T01:50:05;97361.09;;;9.03;78.16
71938;BME280;59810;48.800;9.086;2022-11-15T01:52:33;97366.75;;;9.02;78.62
71938;BME280;59810;48.800;9.086;2022-11-15T01:55:30;97358.84;;;8.95;78.68
71938;BME280;59810;48.800;9.086;2022-11-15T01:58:02;97359.91;;;8.94;78.53
71938;BME280;59810;48.800;9.086;2022-11-15T02:00:29;97354.75;;;8.93;79.41
71938;BME280;59810;48.800;9.086;2022-11-15T02:02:55;97358.34;;;8.98;79.20
71938;BME280;59810;48.800;9.086;2022-11-15T02:05:21;97353.94;;;8.92;79.58
71938;BME280;59810;48.800;9.086;2022-11-15T02:07:49;97353.38;;;8.90;79.14
71938;BME280;59810;48.800;9.086;2022-11-15T02:10:20;97352.00;;;8.88;80.06
71938;BME280;59810;48.800;9.086;2022-11-15T02:12:47;97345.22;;;8.85;79.91
71938;BME280;59810;48.800;9.086;2022-11-15T02:15:13;97345.97;;;8.81;80.30
71938;BME280;59810;48.800;9.086;2022-11-15T02:20:54;97332.09;;;8.72;80.24
71938;BME280;59810;48.800;9.086;2022-11-15T02:31:48;97319.03;;;8.64;81.21
71938;BME280;59810;48.800;9.086;2022-11-15T02:34:34;97325.88;;;8.71;80.80
71938;BME280;59810;48.800;9.086;2022-11-15T02:37:10;97315.94;;;8.72;81.02
71938;BME280;59810;48.800;9.086;2022-11-15T02:39:46;97319.69;;;8.71;81.34
71938;BME280;59810;48.800;9.086;2022-11-15T02:42:26;97314.16;;;8.61;80.82
71938;BME280;59810;48.800;9.086;2022-11-15T02:45:26;97307.84;;;8.72;80.79
71938;BME280;59810;48.800;9.086;2022-11-15T02:47:55;97308.03;;;8.65;80.92
71938;BME280;59810;48.800;9.086;2022-11-15T02:50:25;97300.09;;;8.76;79.68
71938;BME280;59810;48.800;9.086;2022-11-15T02:52:55;97297.97;;;8.78;80.34
71938;BME280;59810;48.800;9.086;2022-11-15T02:55:31;97301.28;;;8.80;80.65
71938;BME280;59810;48.800;9.086;2022-11-15T03:00:48;97296.69;;;8.80;80.16
71938;BME280;59810;48.800;9.086;2022-11-15T03:08:49;97282.81;;;8.71;80.69
71938;BME280;59810;48.800;9.086;2022-11-15T03:11:19;97286.09;;;8.73;79.91
71938;BME280;59810;48.800;9.086;2022-11-15T03:14:13;97284.44;;;8.72;80.45
71938;BME280;59810;48.800;9.086;2022-11-15T03:17:16;97278.44;;;8.65;81.16
71938;BME280;59810;48.800;9.086;2022-11-15T03:19:44;97271.16;;;8.66;80.50
71938;BME280;59810;48.800;9.086;2022-11-15T03:22:13;97268.47;;;8.66;81.09
71938;BME280;59810;48.800;9.086;2022-11-15T03:24:40;97270.34;;;8.82;79.05
71938;BME280;59810;48.800;9.086;2022-11-15T03:27:09;97272.13;;;8.93;79.42
71938;BME280;59810;48.800;9.086;2022-11-15T03:29:39;97277.06;;;9.01;79.93
71938;BME280;59810;48.800;9.086;2022-11-15T03:32:15;97273.63;;;9.06;78.66
71938;BME280;59810;48.800;9.086;2022-11-15T03:37:11;97262.22;;;8.99;78.68
71938;BME280;59810;48.800;9.086;2022-11-15T03:39:39;97258.72;;;8.98;79.44
71938;BME280;59810;48.800;9.086;2022-11-15T03:50:15;97246.81;;;9.38;77.80
71938;BME280;59810;48.800;9.086;2022-11-15T03:52:44;97250.91;;;9.41;77.41
71938;BME280;59810;48.800;9.086;2022-11-15T03:55:13;97244.78;;;9.45;75.94
71938;BME280;59810;48.800;9.086;2022-11-15T03:57:40;97249.59;;;9.43;75.96
71938;BME280;59810;48.800;9.086;2022-11-15T04:00:06;97248.53;;;9.44;75.61
71938;BME280;59810;48.800;9.086;2022-11-15T04:02:33;97248.34;;;9.51;75.96
71938;BME280;59810;48.800;9.086;2022-11-15T04:04:59;97247.69;;;9.65;74.70
71938;BME280;59810;48.800;9.086;2022-11-15T04:07:24;97242.72;;;9.79;73.50
71938;BME280;59810;48.800;9.086;2022-11-15T04:09:50;97250.91;;;9.89;73.44
71938;BME280;59810;48.800;9.086;2022-11-15T04:12:27;97246.78;;;10.09;72.10
71938;BME280;59810;48.800;9.086;2022-11-15T04:15:00;97240.09;;;10.16;71.85
71938;BME280;59810;48.800;9.086;2022-11-15T04:17:32;97254.25;;;10.28;71.18
71938;BME280;59810;48.800;9.086;2022-11-15T04:19:57;97246.19;;;10.34;70.66
71938;BME280;59810;48.800;9.086;2022-11-15T04:22:41;97234.97;;;10.47;69.53
71938;BME280;59810;48.800;9.086;2022-11-15T04:25:25;97234.25;;;10.56;69.28
71938;BME280;59810;48.800;9.086;2022-11-15T04:27:53;97248.84;;;10.60;69.69
71938;BME280;59810;48.800;9.086;2022-11-15T04:30:18;97242.13;;;10.68;67.88
71938;BME280;59810;48.800;9.086;2022-11-15T04:32:44;97245.94;;;10.72;68.04
71938;BME280;59810;48.800;9.086;2022-11-15T04:35:09;97234.91;;;10.74;67.95
71938;BME280;59810;48.800;9.086;2022-11-15T04:37:37;97229.78;;;10.77;68.14
71938;BME280;59810;48.800;9.086;2022-11-15T04:40:02;97222.50;;;10.78;67.82
71938;BME280;59810;48.800;9.086;2022-11-15T04:42:28;97227.38;;;10.81;67.08
71938;BME280;59810;48.800;9.086;2022-11-15T04:44:53;97219.56;;;10.84;67.33
71938;BME280;59810;48.800;9.086;2022-11-15T04:47:19;97221.16;;;10.80;67.55
71938;BME280;59810;48.800;9.086;2022-11-15T04:49:44;97222.78;;;10.81;66.92
71938;BME280;59810;48.800;9.086;2022-11-15T04:52:10;97221.72;;;10.82;67.08
71938;BME280;59810;48.800;9.086;2022-11-15T04:54:35;97220.09;;;10.81;66.54
71938;BME280;59810;48.800;9.086;2022-11-15T04:57:01;97209.81;;;10.78;66.73
71938;BME280;59810;48.800;9.086;2022-11-15T04:59:26;97214.13;;;10.74;67.32
71938;BME280;59810;48.800;9.086;2022-11-15T05:01:54;97208.41;;;10.71;67.20
71938;BME280;59810;48.800;9.086;2022-11-15T05:04:19;97205.97;;;10.69;67.11
71938;BME280;59810;48.800;9.086;2022-11-15T05:06:47;97210.81;;;10.67;67.32
71938;BME280;59810;48.800;9.086;2022-11-15T05:09:20;97206.75;;;10.65;68.59
71938;BME280;59810;48.800;9.086;2022-11-15T05:11:47;97209.75;;;10.68;67.56
71938;BME280;59810;48.800;9.086;2022-11-15T05:14:13;97203.31;;;10.74;67.62
71938;BME280;59810;48.800;9.086;2022-11-15T05:16:38;97197.41;;;10.77;68.07
71938;BME280;59810;48.800;9.086;2022-11-15T05:19:04;97195.22;;;10.74;68.57
71938;BME280;59810;48.800;9.086;2022-11-15T05:21:30;97198.13;;;10.68;68.04
71938;BME280;59810;48.800;9.086;2022-11-15T05:23:57;97207.09;;;10.73;67.69
71938;BME280;59810;48.800;9.086;2022-11-15T05:26:24;97199.03;;;10.78;68.16
71938;BME280;59810;48.800;9.086;2022-11-15T05:28:54;97197.69;;;10.81;68.08
71938;BME280;59810;48.800;9.086;2022-11-15T05:31:20;97191.72;;;10.79;68.39
71938;BME280;59810;48.800;9.086;2022-11-15T05:33:46;97181.75;;;10.79;68.47
71938;BME280;59810;48.800;9.086;2022-11-15T05:38:44;97184.44;;;10.79;68.24
71938;BME280;59810;48.800;9.086;2022-11-15T05:41:11;97179.03;;;10.79;68.32
71938;BME280;59810;48.800;9.086;2022-11-15T05:43:40;97177.69;;;10.82;68.10
71938;BME280;59810;48.800;9.086;2022-11-15T05:46:08;97175.00;;;10.82;67.89
71938;BME280;59810;48.800;9.086;2022-11-15T05:48:35;97179.59;;;10.86;68.37
71938;BME280;59810;48.800;9.086;2022-11-15T05:51:02;97173.41;;;10.86;68.32
71938;BME280;59810;48.800;9.086;2022-11-15T05:53:30;97175.84;;;10.87;67.68
71938;BME280;59810;48.800;9.086;2022-11-15T05:55:56;97173.69;;;10.89;67.92
71938;BME280;59810;48.800;9.086;2022-11-15T05:58:21;97166.41;;;10.95;67.05
71938;BME280;59810;48.800;9.086;2022-11-15T06:00:47;97173.44;;;10.96;67.95
71938;BME280;59810;48.800;9.086;2022-11-15T06:03:12;97171.00;;;10.95;67.93
71938;BME280;59810;48.800;9.086;2022-11-15T06:05:39;97170.72;;;10.96;67.89
71938;BME280;59810;48.800;9.086;2022-11-15T06:08:05;97172.63;;;10.96;68.47
71938;BME280;59810;48.800;9.086;2022-11-15T06:10:30;97162.91;;;11.00;67.60
71938;BME280;59810;48.800;9.086;2022-11-15T06:13:05;97179.38;;;10.98;67.83
71938;BME280;59810;48.800;9.086;2022-11-15T06:15:32;97176.13;;;10.96;68.48
71938;BME280;59810;48.800;9.086;2022-11-15T06:17:58;97184.53;;;11.00;67.90
71938;BME280;59810;48.800;9.086;2022-11-15T06:20:25;97186.16;;;11.01;67.94
71938;BME280;59810;48.800;9.086;2022-11-15T06:22:50;97179.66;;;11.02;68.09
71938;BME280;59810;48.800;9.086;2022-11-15T06:25:18;97183.72;;;11.04;68.06
71938;BME280;59810;48.800;9.086;2022-11-15T06:27:43;97182.91;;;11.04;67.94
71938;BME280;59810;48.800;9.086;2022-11-15T06:30:09;97179.66;;;11.02;69.04
71938;BME280;59810;48.800;9.086;2022-11-15T06:32:34;97183.97;;;10.98;68.47
71938;BME280;59810;48.800;9.086;2022-11-15T06:35:00;97182.91;;;10.99;68.70
71938;BME280;59810;48.800;9.086;2022-11-15T06:37:25;97178.59;;;11.03;68.07
71938;BME280;59810;48.800;9.086;2022-11-15T06:39:51;97181.03;;;11.04;68.32
71938;BME280;59810;48.800;9.086;2022-11-15T06:42:16;97188.63;;;11.07;67.86
71938;BME280;59810;48.800;9.086;2022-11-15T06:44:41;97184.03;;;11.08;67.80
71938;BME280;59810;48.800;9.086;2022-11-15T06:47:09;97178.38;;;11.09;68.66
71938;BME280;59810;48.800;9.086;2022-11-15T06:49:34;97190.75;;;11.05;68.90
71938;BME280;59810;48.800;9.086;2022-11-15T06:52:00;97185.63;;;11.04;68.34
71938;BME280;59810;48.800;9.086;2022-11-15T06:54:28;97191.03;;;11.04;67.97
71938;BME280;59810;48.800;9.086;2022-11-15T06:56:53;97197.00;;;11.06;67.39
71938;BME280;59810;48.800;9.086;2022-11-15T06:59:18;97201.00;;;11.03;67.81
71938;BME280;59810;48.800;9.086;2022-11-15T07:01:46;97194.31;;;11.11;66.59
71938;BME280;59810;48.800;9.086;2022-11-15T07:04:14;97204.88;;;11.17;66.28
71938;BME280;59810;48.800;9.086;2022-11-15T07:06:39;97204.91;;;11.22;65.50
71938;BME280;59810;48.800;9.086;2022-11-15T07:09:09;97201.66;;;11.20;65.76
71938;BME280;59810;48.800;9.086;2022-11-15T07:11:34;97204.09;;;11.27;65.89
71938;BME280;59810;48.800;9.086;2022-11-15T07:14:00;97206.81;;;11.32;64.67
71938;BME280;59810;48.800;9.086;2022-11-15T07:16:25;97207.91;;;11.36;64.41
71938;BME280;59810;48.800;9.086;2022-11-15T07:18:51;97209.84;;;11.41;64.27
71938;BME280;59810;48.800;9.086;2022-11-15T07:21:16;97209.84;;;11.46;64.05
71938;BME280;59810;48.800;9.086;2022-11-15T07:23:41;97203.38;;;11.52;64.35
71938;BME280;59810;48.800;9.086;2022-11-15T07:26:07;97202.03;;;11.54;64.52
71938;BME280;59810;48.800;9.086;2022-11-15T07:28:33;97206.34;;;11.56;64.88
71938;BME280;59810;48.800;9.086;2022-11-15T07:31:03;97199.88;;;11.57;64.74
71938;BME280;59810;48.800;9.086;2022-11-15T07:33:29;97197.44;;;11.65;63.89
71938;BME280;59810;48.800;9.086;2022-11-15T07:35:58;97194.75;;;11.70;64.28
71938;BME280;59810;48.800;9.086;2022-11-15T07:38:27;97194.50;;;11.77;63.85
71938;BME280;59810;48.800;9.086;2022-11-15T07:40:57;97191.31;;;11.85;64.19
71938;BME280;59810;48.800;9.086;2022-11-15T07:43:22;97192.94;;;11.86;63.84
71938;BME280;59810;48.800;9.086;2022-11-15T07:45:48;97187.53;;;11.91;63.12
71938;BME280;59810;48.800;9.086;2022-11-15T07:48:15;97192.13;;;11.96;63.29
71938;BME280;59810;48.800;9.086;2022-11-15T07:50:41;97187.25;;;11.98;63.74
71938;BME280;59810;48.800;9.086;2022-11-15T07:53:08;97184.53;;;12.03;63.49
71938;BME280;59810;48.800;9.086;2022-11-15T07:55:34;97184.03;;;12.06;63.96
71938;BME280;59810;48.800;9.086;2022-11-15T07:58:03;97184.56;;;12.08;64.29
71938;BME280;59810;48.800;9.086;2022-11-15T08:00:30;97185.91;;;12.15;64.03
71938;BME280;59810;48.800;9.086;2022-11-15T08:03:09;97176.44;;;12.18;63.55
71938;BME280;59810;48.800;9.086;2022-11-15T08:05:36;97176.16;;;12.20;64.07
71938;BME280;59810;48.800;9.086;2022-11-15T08:08:02;97178.59;;;12.21;64.00
71938;BME280;59810;48.800;9.086;2022-11-15T08:10:28;97173.72;;;12.23;63.19
71938;BME280;59810;48.800;9.086;2022-11-15T08:13:04;97178.88;;;12.25;63.93
71938;BME280;59810;48.800;9.086;2022-11-15T08:15:31;97177.50;;;12.27;63.78
71938;BME280;59810;48.800;9.086;2022-11-15T08:17:57;97181.56;;;12.35;63.73
71938;BME280;59810;48.800;9.086;2022-11-15T08:20:24;97176.72;;;12.37;62.57
71938;BME280;59810;48.800;9.086;2022-11-15T08:22:51;97179.69;;;12.45;62.93
71938;BME280;59810;48.800;9.086;2022-11-15T08:25:18;97179.41;;;12.47;62.63
71938;BME280;59810;48.800;9.086;2022-11-15T08:27:44;97174.22;;;12.56;63.57
71938;BME280;59810;48.800;9.086;2022-11-15T08:30:10;97178.00;;;12.65;62.49
71938;BME280;59810;48.800;9.086;2022-11-15T08:32:36;97165.56;;;12.69;62.83
71938;BME280;59810;48.800;9.086;2022-11-15T08:35:01;97158.78;;;12.71;62.83
71938;BME280;59810;48.800;9.086;2022-11-15T08:37:27;97165.81;;;12.77;62.86
71938;BME280;59810;48.800;9.086;2022-11-15T08:39:52;97158.19;;;12.85;62.40
71938;BME280;59810;48.800;9.086;2022-11-15T08:42:17;97156.53;;;12.89;62.92
71938;BME280;59810;48.800;9.086;2022-11-15T08:44:43;97151.09;;;13.04;62.03
71938;BME280;59810;48.800;9.086;2022-11-15T08:47:11;97146.94;;;13.17;61.42
71938;BME280;59810;48.800;9.086;2022-11-15T08:49:39;97152.28;;;13.42;61.18
71938;BME280;59810;48.800;9.086;2022-11-15T08:52:04;97143.53;;;13.55;60.44
71938;BME280;59810;48.800;9.086;2022-11-15T08:54:32;97145.91;;;13.67;60.50
71938;BME280;59810;48.800;9.086;2022-11-15T08:56:57;97146.44;;;13.69;60.69
71938;BME280;59810;48.800;9.086;2022-11-15T08:59:23;97135.66;;;13.54;60.94
71938;BME280;59810;48.800;9.086;2022-11-15T09:01:48;97140.03;;;13.50;61.12
71938;BME280;59810;48.800;9.086;2022-11-15T09:04:14;97147.25;;;13.64;61.26
71938;BME280;59810;48.800;9.086;2022-11-15T09:06:41;97150.47;;;13.72;60.23
71938;BME280;59810;48.800;9.086;2022-11-15T09:09:06;97144.75;;;13.78;59.17
71938;BME280;59810;48.800;9.086;2022-11-15T09:11:32;97140.88;;;13.84;58.99
71938;BME280;59810;48.800;9.086;2022-11-15T09:13:57;97142.72;;;13.94;60.34
71938;BME280;59810;48.800;9.086;2022-11-15T09:16:25;97139.28;;;13.83;60.47
71938;BME280;59810;48.800;9.086;2022-11-15T09:18:51;97132.41;;;13.91;60.02
71938;BME280;59810;48.800;9.086;2022-11-15T09:21:17;97137.00;;;13.95;60.29
71938;BME280;59810;48.800;9.086;2022-11-15T09:23:44;97140.53;;;13.96;60.38
71938;BME280;59810;48.800;9.086;2022-11-15T09:26:12;97128.03;;;14.00;58.59
71938;BME280;59810;48.800;9.086;2022-11-15T09:28:38;97136.59;;;14.12;59.67
71938;BME280;59810;48.800;9.086;2022-11-15T09:31:07;97142.78;;;14.18;59.42
71938;BME280;59810;48.800;9.086;2022-11-15T09:33:32;97135.75;;;14.17;60.07
71938;BME280;59810;48.800;9.086;2022-11-15T09:36:06;97132.22;;;14.16;60.32
71938;BME280;59810;48.800;9.086;2022-11-15T09:38:32;97142.75;;;14.23;59.63
71938;BME280;59810;48.800;9.086;2022-11-15T09:51:40;97125.66;;;14.51;61.07
71938;BME280;59810;48.800;9.086;2022-11-15T09:54:47;97126.19;;;14.53;58.61
71938;BME280;59810;48.800;9.086;2022-11-15T09:57:17;97119.03;;;14.62;58.36
71938;BME280;59810;48.800;9.086;2022-11-15T10:05:03;97112.63;;;14.77;58.25
71938;BME280;59810;48.800;9.086;2022-11-15T10:07:46;97107.94;;;14.83;59.08
71938;BME280;59810;48.800;9.086;2022-11-15T10:10:25;97107.94;;;14.83;59.72
71938;BME280;59810;48.800;9.086;2022-11-15T10:12:52;97103.00;;;14.85;59.58
71938;BME280;59810;48.800;9.086;2022-11-15T10:15:19;97106.69;;;14.94;60.55
71938;BME280;59810;48.800;9.086;2022-11-15T10:20:58;97093.66;;;14.96;60.39
71938;BME280;59810;48.800;9.086;2022-11-15T10:23:23;97094.19;;;14.98;59.95
71938;BME280;59810;48.800;9.086;2022-11-15T10:25:57;97090.94;;;14.96;60.92
71938;BME280;59810;48.800;9.086;2022-11-15T10:28:28;97090.97;;;14.91;61.96
71938;BME280;59810;48.800;9.086;2022-11-15T10:30:56;97088.75;;;14.98;61.81
71938;BME280;59810;48.800;9.086;2022-11-15T10:33:26;97086.75;;;15.04;61.42
71938;BME280;59810;48.800;9.086;2022-11-15T10:36:15;97082.72;;;15.01;61.93
71938;BME280;59810;48.800;9.086;2022-11-15T10:41:21;97078.09;;;15.02;61.72
71938;BME280;59810;48.800;9.086;2022-11-15T10:46:27;97071.38;;;14.94;61.88
71938;BME280;59810;48.800;9.086;2022-11-15T10:48:52;97072.97;;;14.95;61.65
71938;BME280;59810;48.800;9.086;2022-11-15T10:51:24;97064.59;;;14.91;61.68
71938;BME280;59810;48.800;9.086;2022-11-15T10:53:57;97056.22;;;14.88;62.91
71938;BME280;59810;48.800;9.086;2022-11-15T10:56:25;97054.59;;;14.87;63.07
71938;BME280;59810;48.800;9.086;2022-11-15T10:58:54;97048.13;;;14.83;62.99
71938;BME280;59810;48.800;9.086;2022-11-15T11:01:25;97053.50;;;14.69;63.64
71938;BME280;59810;48.800;9.086;2022-11-15T11:06:29;97057.16;;;14.78;64.74
71938;BME280;59810;48.800;9.086;2022-11-15T11:09:02;97054.44;;;14.78;62.67
71938;BME280;59810;48.800;9.086;2022-11-15T11:11:59;97051.72;;;14.78;62.55
71938;BME280;59810;48.800;9.086;2022-11-15T11:14:36;97046.81;;;14.80;64.30
71938;BME280;59810;48.800;9.086;2022-11-15T11:28:34;97040.38;;;14.95;63.32
71938;BME280;59810;48.800;9.086;2022-11-15T11:47:11;96993.31;;;15.51;61.41
71938;BME280;59810;48.800;9.086;2022-11-15T11:49:46;96994.31;;;15.55;59.32
71938;BME280;59810;48.800;9.086;2022-11-15T11:55:03;96990.28;;;15.71;58.41
71938;BME280;59810;48.800;9.086;2022-11-15T11:57:50;96997.47;;;15.81;57.28
71938;BME280;59810;48.800;9.086;2022-11-15T12:03:04;96989.84;;;15.97;56.41
71938;BME280;59810;48.800;9.086;2022-11-15T12:05:44;96994.69;;;16.00;55.51
71938;BME280;59810;48.800;9.086;2022-11-15T12:13:57;96980.94;;;15.91;56.98
71938;BME280;59810;48.800;9.086;2022-11-15T12:16:42;96971.91;;;15.96;56.34
71938;BME280;59810;48.800;9.086;2022-11-15T12:19:08;96963.72;;;15.96;56.49
71938;BME280;59810;48.800;9.086;2022-11-15T12:21:45;96971.41;;;15.94;56.75
71938;BME280;59810;48.800;9.086;2022-11-15T12:26:52;96969.03;;;15.73;56.84
71938;BME280;59810;48.800;9.086;2022-11-15T12:29:27;96960.16;;;15.68;57.15
71938;BME280;59810;48.800;9.086;2022-11-15T12:31:55;96963.16;;;15.66;57.43
71938;BME280;59810;48.800;9.086;2022-11-15T12:36:49;96959.19;;;15.59;58.11
71938;BME280;59810;48.800;9.086;2022-11-15T12:39:16;96955.66;;;15.58;58.72
71938;BME280;59810;48.800;9.086;2022-11-15T12:59:53;96936.16;;;15.37;60.53
71938;BME280;59810;48.800;9.086;2022-11-15T13:02:44;96933.22;;;15.34;60.19
71938;BME280;59810;48.800;9.086;2022-11-15T13:13:08;96923.94;;;15.35;59.98
71938;BME280;59810;48.800;9.086;2022-11-15T13:15:37;96916.81;;;15.39;60.60
71938;BME280;59810;48.800;9.086;2022-11-15T13:20:55;96905.94;;;15.39;60.68
71938;BME280;59810;48.800;9.086;2022-11-15T13:23:23;96905.22;;;15.33;60.65
71938;BME280;59810;48.800;9.086;2022-11-15T13:25:57;96902.78;;;15.32;61.20
71938;BME280;59810;48.800;9.086;2022-11-15T13:28:45;96900.66;;;15.29;60.99
71938;BME280;59810;48.800;9.086;2022-11-15T13:31:36;96885.72;;;15.26;60.48
71938;BME280;59810;48.800;9.086;2022-11-15T13:34:31;96897.00;;;15.19;60.29
71938;BME280;59810;48.800;9.086;2022-11-15T13:37:01;96890.44;;;15.20;61.01
71938;BME280;59810;48.800;9.086;2022-11-15T13:39:32;96886.13;;;15.19;60.52
71938;BME280;59810;48.800;9.086;2022-11-15T13:41:58;96877.75;;;15.16;59.73
71938;BME280;59810;48.800;9.086;2022-11-15T13:44:27;96880.75;;;15.14;60.93
71938;BME280;59810;48.800;9.086;2022-11-15T13:47:12;96870.66;;;15.01;61.00
71938;BME280;59810;48.800;9.086;2022-11-15T13:49:37;96867.94;;;15.01;61.78
71938;BME280;59810;48.800;9.086;2022-11-15T13:52:10;96860.16;;;14.94;61.13
71938;BME280;59810;48.800;9.086;2022-11-15T13:54:52;96863.75;;;14.90;63.13
71938;BME280;59810;48.800;9.086;2022-11-15T13:57:23;96857.38;;;14.81;64.27
71938;BME280;59810;48.800;9.086;2022-11-15T13:59:59;96859.69;;;14.74;65.00
71938;BME280;59810;48.800;9.086;2022-11-15T14:02:32;96854.75;;;14.57;66.44
71938;BME280;59810;48.800;9.086;2022-11-15T14:05:02;96851.69;;;14.63;65.43
71938;BME280;59810;48.800;9.086;2022-11-15T14:07:32;96850.94;;;14.58;66.67
71938;BME280;59810;48.800;9.086;2022-11-15T14:10:27;96848.66;;;14.46;67.35
71938;BME280;59810;48.800;9.086;2022-11-15T14:12:52;96839.72;;;14.46;67.54
71938;BME280;59810;48.800;9.086;2022-11-15T14:15:38;96843.16;;;14.32;67.92
71938;BME280;59810;48.800;9.086;2022-11-15T14:21:08;96839.75;;;14.22;69.18
71938;BME280;59810;48.800;9.086;2022-11-15T14:23:33;96828.38;;;14.20;69.48
71938;BME280;59810;48.800;9.086;2022-11-15T14:25:58;96823.00;;;14.15;69.70
71938;BME280;59810;48.800;9.086;2022-11-15T14:30:53;96815.53;;;14.07;70.10
71938;BME280;59810;48.800;9.086;2022-11-15T14:33:31;96800.84;;;14.08;69.79
71938;BME280;59810;48.800;9.086;2022-11-15T14:38:30;96794.31;;;14.09;70.25
71938;BME280;59810;48.800;9.086;2022-11-15T14:40:56;96790.59;;;14.05;69.64
71938;BME280;59810;48.800;9.086;2022-11-15T14:43:22;96788.69;;;14.05;69.62
71938;BME280;59810;48.800;9.086;2022-11-15T14:45:47;96784.34;;;14.04;69.98
71938;BME280;59810;48.800;9.086;2022-11-15T14:48:13;96785.75;;;14.01;69.46
71938;BME280;59810;48.800;9.086;2022-11-15T14:50:38;96789.84;;;13.99;69.83
71938;BME280;59810;48.800;9.086;2022-11-15T14:53:04;96777.13;;;13.94;69.82
71938;BME280;59810;48.800;9.086;2022-11-15T14:55:32;96784.19;;;13.95;69.48
71938;BME280;59810;48.800;9.086;2022-11-15T14:58:00;96768.84;;;13.86;70.30
71938;BME280;59810;48.800;9.086;2022-11-15T15:00:28;96767.25;;;13.85;70.06
71938;BME280;59810;48.800;9.086;2022-11-15T15:02:56;96765.91;;;13.82;69.92
71938;BME280;59810;48.800;9.086;2022-11-15T15:05:32;96765.41;;;13.80;70.26
71938;BME280;59810;48.800;9.086;2022-11-15T15:08:00;96769.34;;;13.69;70.99
71938;BME280;59810;48.800;9.086;2022-11-15T15:10:40;96767.16;;;13.71;71.05
71938;BME280;59810;48.800;9.086;2022-11-15T15:13:20;96755.91;;;13.59;71.84
71938;BME280;59810;48.800;9.086;2022-11-15T15:15:46;96748.28;;;13.61;72.03
71938;BME280;59810;48.800;9.086;2022-11-15T15:18:12;96741.00;;;13.56;72.01
71938;BME280;59810;48.800;9.086;2022-11-15T15:20:39;96738.09;;;13.53;74.95
71938;BME280;59810;48.800;9.086;2022-11-15T15:23:05;96733.00;;;13.46;73.55
71938;BME280;59810;48.800;9.086;2022-11-15T15:25:34;96735.94;;;13.50;73.07
71938;BME280;59810;48.800;9.086;2022-11-15T15:28:00;96738.22;;;13.43;72.08
71938;BME280;59810;48.800;9.086;2022-11-15T15:30:28;96736.66;;;13.36;72.31
71938;BME280;59810;48.800;9.086;2022-11-15T15:32:53;96731.81;;;13.33;71.81